Terminal Aerodrome Forecast
Issued by NWS

Home | Current Version | Previous Version | Text Only | Print | Product List | Glossary On
Versions: 1 2 3 4 5 6 7 8 9 10 11 12 13 14
000
FTUS45 KSLC 051739
TAFEVW
TAF
KEVW 051739Z 0518/0618 19010G18KT P6SM OVC150
     FM052000 20015G26KT P6SM SCT100 BKN150
     FM060100 16010KT P6SM BKN090 OVC150
     FM061500 10012KT P6SM BKN100 OVC150=

USA.gov is the U.S. government's official web portal to all federal, state and local government web resources and services.